Time;durP1;ratioP1;P1;durP2;ratioP2;P2;SDS_P1;SDS_P2;PMS_P1;PMS_P2;Temp;Humidity;BMP_temperature;BMP_pressure;BME280_temperature;BME280_humidity;BME280_pressure;Samples;Min_cycle;Max_cycle;Signal;HPM_P1;HPM_P2
2023/11/22 00:01:07;;;;;;;16.27;10.60;;;5.70;99.90;;;;;;5063766;28;20203;-83
2023/11/22 00:03:34;;;;;;;12.60;8.75;;;5.70;99.90;;;;;;5060042;28;20200;-85
2023/11/22 00:06:01;;;;;;;16.75;9.23;;;5.80;99.90;;;;;;5073006;28;20228;-85
2023/11/22 00:08:29;;;;;;;14.63;9.82;;;5.70;99.90;;;;;;5073257;28;20231;-85
2023/11/22 00:10:56;;;;;;;14.35;10.00;;;5.80;99.90;;;;;;5069913;28;20275;-86
2023/11/22 00:13:24;;;;;;;12.30;10.40;;;5.60;99.90;;;;;;5073331;28;20201;-83
2023/11/22 00:15:51;;;;;;;14.93;10.10;;;5.70;99.90;;;;;;5073737;28;20272;-85
2023/11/22 00:18:18;;;;;;;13.98;9.73;;;5.50;99.90;;;;;;5065689;28;20274;-83
2023/11/22 00:20:47;;;;;;;14.98;8.90;;;5.50;99.90;;;;;;5075297;28;20192;-88
2023/11/22 00:23:14;;;;;;;14.95;10.43;;;5.40;99.90;;;;;;5077926;28;20212;-86
2023/11/22 00:25:41;;;;;;;16.27;10.73;;;5.30;99.90;;;;;;5069851;28;20208;-87
2023/11/22 00:28:08;;;;;;;15.27;9.60;;;5.30;99.90;;;;;;5063305;28;20212;-87
2023/11/22 00:30:36;;;;;;;19.92;9.90;;;5.30;99.90;;;;;;5073484;28;20208;-87
2023/11/22 00:33:04;;;;;;;12.25;8.35;;;5.30;99.90;;;;;;5077506;28;20211;-86
2023/11/22 00:35:31;;;;;;;13.88;9.02;;;5.40;99.90;;;;;;5075019;28;20192;-88
2023/11/22 00:37:59;;;;;;;18.30;10.93;;;5.40;99.90;;;;;;5075872;28;20224;-86
2023/11/22 00:40:26;;;;;;;17.77;11.23;;;5.30;99.90;;;;;;5077671;28;20208;-86
2023/11/22 00:42:52;;;;;;;19.73;11.65;;;5.30;99.90;;;;;;5083247;28;20221;-87
2023/11/22 00:45:19;;;;;;;13.82;10.90;;;5.30;99.90;;;;;;5077866;28;20230;-85
2023/11/22 00:47:48;;;;;;;13.90;9.57;;;5.30;99.90;;;;;;5072312;28;20220;-87
2023/11/22 00:50:19;;;;;;;14.43;9.75;;;5.40;99.90;;;;;;5077809;28;20227;-86
2023/11/22 00:52:46;;;;;;;14.23;9.65;;;5.20;99.90;;;;;;5077492;28;20188;-85
2023/11/22 00:55:13;;;;;;;16.60;12.10;;;5.10;99.90;;;;;;5077915;28;20191;-88
2023/11/22 00:57:41;;;;;;;12.48;9.00;;;5.00;99.90;;;;;;5076313;28;20199;-85
2023/11/22 01:00:11;;;;;;;15.13;10.43;;;5.00;99.90;;;;;;5077583;28;20200;-85
2023/11/22 01:02:38;;;;;;;15.48;9.85;;;4.90;99.90;;;;;;5067837;28;20668;-84
2023/11/22 01:05:10;;;;;;;16.17;10.20;;;4.80;99.90;;;;;;5064481;28;20295;-85
2023/11/22 01:07:38;;;;;;;14.48;11.23;;;4.80;99.90;;;;;;5066710;28;20259;-85
2023/11/22 01:10:06;;;;;;;17.10;11.40;;;4.80;99.90;;;;;;5062890;28;20216;-86
2023/11/22 01:12:34;;;;;;;16.27;10.68;;;4.90;99.90;;;;;;5073587;28;20457;-85
2023/11/22 01:15:03;;;;;;;13.15;10.15;;;4.90;99.90;;;;;;5072739;28;20449;-85
2023/11/22 01:17:30;;;;;;;13.73;10.88;;;4.90;99.90;;;;;;5069387;28;20242;-86
2023/11/22 01:19:58;;;;;;;14.32;9.15;;;4.90;99.90;;;;;;5065603;28;20204;-86
2023/11/22 01:22:27;;;;;;;12.65;10.02;;;4.90;99.90;;;;;;5060695;28;20222;-83
2023/11/22 01:24:54;;;;;;;15.27;10.27;;;4.90;99.90;;;;;;5066229;28;20207;-85
2023/11/22 01:27:21;;;;;;;13.05;9.05;;;4.80;99.90;;;;;;5062079;28;20277;-86
2023/11/22 01:29:48;;;;;;;16.33;11.00;;;4.70;99.90;;;;;;5066151;28;20698;-84
2023/11/22 01:32:16;;;;;;;17.45;11.85;;;4.80;99.90;;;;;;5060704;28;20234;-85
2023/11/22 01:34:44;;;;;;;15.00;11.40;;;4.70;99.90;;;;;;5067505;28;20214;-86
2023/11/22 01:37:10;;;;;;;16.33;11.25;;;4.70;99.90;;;;;;5061769;28;20235;-84
2023/11/22 01:39:41;;;;;;;16.50;10.82;;;4.70;99.90;;;;;;5062454;28;20570;-85
2023/11/22 01:42:09;;;;;;;15.52;10.73;;;4.60;99.90;;;;;;5067147;28;20406;-85
2023/11/22 01:44:36;;;;;;;22.42;12.00;;;4.50;99.90;;;;;;5065608;28;20219;-86
2023/11/22 01:47:03;;;;;;;17.17;12.13;;;4.40;99.90;;;;;;5066476;28;20228;-85
2023/11/22 01:49:30;;;;;;;16.90;10.65;;;4.40;99.90;;;;;;5066116;28;20207;-85
2023/11/22 01:51:58;;;;;;;14.57;11.00;;;4.50;99.90;;;;;;5067401;28;20703;-85
2023/11/22 01:54:25;;;;;;;16.52;12.20;;;4.50;99.90;;;;;;5057959;28;20203;-85
2023/11/22 01:56:54;;;;;;;18.98;11.27;;;4.50;99.90;;;;;;5059925;28;20220;-85
2023/11/22 01:59:22;;;;;;;14.30;11.73;;;4.50;99.90;;;;;;5063502;28;20342;-84
2023/11/22 02:01:50;;;;;;;18.85;11.90;;;4.30;99.90;;;;;;5063078;28;20689;-85
2023/11/22 02:04:17;;;;;;;15.45;10.85;;;4.30;99.90;;;;;;5068172;28;20224;-85
2023/11/22 02:06:43;;;;;;;15.77;11.98;;;4.30;99.90;;;;;;5066642;28;20216;-84
2023/11/22 02:09:13;;;;;;;18.05;11.57;;;4.20;99.90;;;;;;5061056;28;20226;-86
2023/11/22 02:11:41;;;;;;;16.90;12.32;;;4.30;99.90;;;;;;5079150;28;20226;-85
2023/11/22 02:14:09;;;;;;;17.58;11.18;;;4.20;99.90;;;;;;5077256;28;20226;-85
2023/11/22 02:16:37;;;;;;;14.60;10.48;;;4.40;99.90;;;;;;5075371;28;20204;-86
2023/11/22 02:19:07;;;;;;;17.67;12.00;;;4.30;99.90;;;;;;5076716;28;20214;-84
2023/11/22 02:21:34;;;;;;;38.67;12.43;;;4.30;99.90;;;;;;5076919;28;20248;-85
2023/11/22 02:24:02;;;;;;;18.52;13.18;;;4.20;99.90;;;;;;5076314;28;20199;-86
2023/11/22 02:26:29;;;;;;;16.08;10.68;;;4.30;99.90;;;;;;5070332;28;20274;-86
2023/11/22 02:28:56;;;;;;;20.80;13.50;;;4.30;99.90;;;;;;5073704;28;20208;-84
2023/11/22 02:31:23;;;;;;;15.32;10.98;;;4.10;99.90;;;;;;5073251;28;20220;-87
2023/11/22 02:33:50;;;;;;;22.80;12.10;;;4.10;99.90;;;;;;5066018;28;20583;-86
2023/11/22 02:36:17;;;;;;;24.42;13.40;;;4.30;99.90;;;;;;5076011;28;20474;-87
2023/11/22 02:38:45;;;;;;;16.58;13.02;;;4.20;99.90;;;;;;5078362;28;20207;-84
2023/11/22 02:41:14;;;;;;;16.75;10.95;;;4.20;99.90;;;;;;5073805;28;20242;-85
2023/11/22 02:43:42;;;;;;;18.05;12.20;;;4.20;99.90;;;;;;5079414;28;20238;-87
2023/11/22 02:46:10;;;;;;;16.15;12.13;;;4.20;99.90;;;;;;5061003;28;20268;-85
2023/11/22 02:48:37;;;;;;;15.68;9.68;;;4.20;99.90;;;;;;5074237;28;20202;-86
2023/11/22 02:51:06;;;;;;;22.52;12.10;;;4.10;99.90;;;;;;5071942;28;20223;-87
2023/11/22 02:53:33;;;;;;;18.98;11.93;;;4.20;99.90;;;;;;5079670;28;20181;-87
2023/11/22 02:56:01;;;;;;;21.95;12.88;;;4.10;99.90;;;;;;5071662;28;20208;-86
2023/11/22 02:58:33;;;;;;;18.33;11.40;;;4.10;99.90;;;;;;5078559;28;20293;-87
2023/11/22 03:01:01;;;;;;;13.80;10.70;;;4.10;99.90;;;;;;5077615;28;20200;-83
2023/11/22 03:03:28;;;;;;;19.15;11.73;;;4.10;99.90;;;;;;5081959;28;20203;-87
2023/11/22 03:05:55;;;;;;;15.93;10.50;;;4.10;99.90;;;;;;5068260;28;20225;-86
2023/11/22 03:08:22;;;;;;;18.10;12.07;;;4.10;99.90;;;;;;5069158;28;20243;-86
2023/11/22 03:10:50;;;;;;;20.08;12.55;;;4.10;99.90;;;;;;5071116;28;20242;-86
2023/11/22 03:13:18;;;;;;;16.38;11.18;;;4.10;99.90;;;;;;5074507;28;20260;-86
2023/11/22 03:15:47;;;;;;;20.55;12.45;;;4.20;99.90;;;;;;5074045;28;20212;-84
2023/11/22 03:18:13;;;;;;;15.95;10.95;;;4.10;99.90;;;;;;5061150;28;20234;-83
2023/11/22 03:20:42;;;;;;;23.95;13.05;;;4.10;99.90;;;;;;5064893;28;20215;-84
2023/11/22 03:23:10;;;;;;;14.20;10.43;;;4.10;99.90;;;;;;5065858;28;20211;-87
2023/11/22 03:25:38;;;;;;;13.60;10.63;;;4.00;99.90;;;;;;5050851;28;20583;-87
2023/11/22 03:28:06;;;;;;;15.85;11.38;;;4.00;99.90;;;;;;5069827;28;20223;-85
2023/11/22 03:30:33;;;;;;;20.75;13.75;;;4.00;99.90;;;;;;5075102;28;20275;-86
2023/11/22 03:33:02;;;;;;;20.17;10.82;;;4.10;99.90;;;;;;5065654;28;20271;-87
2023/11/22 03:35:29;;;;;;;16.20;10.90;;;4.10;99.90;;;;;;5053766;28;20208;-86
2023/11/22 03:37:56;;;;;;;12.90;10.70;;;4.20;99.90;;;;;;5066491;28;20299;-85
2023/11/22 03:40:23;;;;;;;21.02;11.18;;;4.20;99.90;;;;;;5070411;28;20223;-85
2023/11/22 03:42:49;;;;;;;15.20;11.68;;;4.20;99.90;;;;;;5064779;28;20212;-86
2023/11/22 03:45:16;;;;;;;15.20;10.93;;;4.30;99.90;;;;;;5073735;28;20199;-87
2023/11/22 03:47:43;;;;;;;15.23;10.57;;;4.10;99.90;;;;;;5077284;28;20259;-87
2023/11/22 03:50:11;;;;;;;15.30;11.32;;;4.20;99.90;;;;;;5062843;28;20200;-87
2023/11/22 03:52:38;;;;;;;13.88;8.90;;;4.10;99.90;;;;;;5070653;28;20200;-87
2023/11/22 03:55:06;;;;;;;15.07;9.35;;;4.20;99.90;;;;;;5077345;28;20196;-88
2023/11/22 03:57:33;;;;;;;13.93;9.05;;;4.10;99.90;;;;;;5076562;28;20227;-88
2023/11/22 04:00:00;;;;;;;17.25;10.82;;;4.20;99.90;;;;;;5076248;28;20699;-87
2023/11/22 04:02:28;;;;;;;17.70;11.90;;;4.30;99.90;;;;;;5077594;28;20204;-86
2023/11/22 04:04:55;;;;;;;15.13;11.35;;;4.10;99.90;;;;;;5079030;28;20211;-85
2023/11/22 04:07:23;;;;;;;16.20;11.45;;;4.00;99.90;;;;;;5077175;28;20216;-87
2023/11/22 04:09:50;;;;;;;14.47;10.83;;;3.90;99.90;;;;;;5070157;28;20263;-87
2023/11/22 04:12:17;;;;;;;14.98;9.48;;;3.90;99.90;;;;;;5074888;28;20505;-87
2023/11/22 04:14:44;;;;;;;18.27;12.55;;;4.00;99.90;;;;;;5077824;28;20199;-88
2023/11/22 04:17:11;;;;;;;15.20;12.18;;;3.80;99.90;;;;;;5077773;28;20212;-85
2023/11/22 04:19:38;;;;;;;16.92;12.23;;;3.80;99.90;;;;;;5079014;28;20260;-87
2023/11/22 04:22:05;;;;;;;13.52;10.07;;;3.70;99.90;;;;;;5075188;28;20219;-87
2023/11/22 04:24:34;;;;;;;18.67;10.57;;;3.80;99.90;;;;;;5073107;28;20204;-86
2023/11/22 04:27:02;;;;;;;14.38;10.60;;;3.70;99.90;;;;;;5064274;28;20258;-85
2023/11/22 04:29:29;;;;;;;14.45;11.18;;;3.80;99.90;;;;;;5070509;28;20237;-87
2023/11/22 04:31:56;;;;;;;15.65;9.68;;;3.80;99.90;;;;;;5068810;28;20237;-87
2023/11/22 04:34:23;;;;;;;13.88;10.68;;;3.90;99.90;;;;;;5065082;28;20216;-87
2023/11/22 04:36:50;;;;;;;13.30;11.70;;;4.00;99.90;;;;;;5066313;28;20227;-87
2023/11/22 04:39:17;;;;;;;18.35;11.63;;;4.00;99.90;;;;;;5056048;28;20250;-87
2023/11/22 04:41:45;;;;;;;19.15;13.02;;;3.90;99.90;;;;;;5055017;28;20207;-85
2023/11/22 04:44:12;;;;;;;13.77;10.73;;;3.90;99.90;;;;;;5065395;28;20217;-87
2023/11/22 04:46:39;;;;;;;14.00;10.63;;;3.80;99.90;;;;;;5064275;28;20485;-87
2023/11/22 04:49:07;;;;;;;13.65;9.82;;;3.90;99.90;;;;;;5070052;28;20196;-86
2023/11/22 04:51:34;;;;;;;12.27;9.60;;;3.80;99.90;;;;;;5073126;28;20216;-86
2023/11/22 04:54:01;;;;;;;11.32;9.48;;;3.70;99.90;;;;;;5071391;28;20208;-85
2023/11/22 04:56:28;;;;;;;17.17;11.65;;;3.80;99.90;;;;;;5067824;28;21356;-86
2023/11/22 04:58:57;;;;;;;13.73;11.00;;;3.80;99.90;;;;;;5067194;28;20215;-85
2023/11/22 05:01:25;;;;;;;13.95;9.98;;;3.80;99.90;;;;;;5067694;28;20204;-86
2023/11/22 05:03:52;;;;;;;13.68;10.38;;;3.70;99.90;;;;;;5066796;28;20580;-86
2023/11/22 05:06:19;;;;;;;15.02;10.13;;;3.70;99.90;;;;;;5059595;28;20218;-85
2023/11/22 05:08:46;;;;;;;16.65;12.50;;;3.70;99.90;;;;;;5066868;28;20242;-86
2023/11/22 05:11:15;;;;;;;14.95;10.73;;;3.70;99.90;;;;;;5076545;28;20222;-85
2023/11/22 05:13:42;;;;;;;17.00;12.65;;;3.70;99.90;;;;;;5080030;28;20184;-86
2023/11/22 05:16:11;;;;;;;15.25;11.50;;;3.70;99.90;;;;;;5071610;28;20574;-84
2023/11/22 05:18:38;;;;;;;15.10;11.68;;;3.70;99.90;;;;;;5068449;28;20199;-86
2023/11/22 05:21:05;;;;;;;15.82;10.90;;;3.70;99.90;;;;;;5067733;28;20204;-85
2023/11/22 05:23:32;;;;;;;13.43;10.95;;;3.70;99.90;;;;;;5069099;28;20208;-86
2023/11/22 05:25:59;;;;;;;18.25;10.60;;;3.80;99.90;;;;;;5067279;28;20204;-84
2023/11/22 05:28:27;;;;;;;15.15;10.73;;;3.90;99.90;;;;;;5060474;28;20228;-86
2023/11/22 05:30:54;;;;;;;14.30;10.68;;;3.70;99.90;;;;;;5064413;28;20276;-86
2023/11/22 05:33:23;;;;;;;14.05;10.02;;;3.80;99.90;;;;;;5063448;28;20225;-86
2023/11/22 05:35:50;;;;;;;13.23;10.88;;;3.70;99.90;;;;;;5060261;28;20301;-86
2023/11/22 05:38:17;;;;;;;16.60;11.35;;;3.80;99.90;;;;;;5067700;28;20216;-85
2023/11/22 05:40:45;;;;;;;14.60;10.52;;;3.80;99.90;;;;;;5067091;28;20241;-87
2023/11/22 05:43:12;;;;;;;22.17;12.43;;;3.80;99.90;;;;;;5063085;28;20686;-84
2023/11/22 05:45:40;;;;;;;23.73;11.63;;;3.70;99.90;;;;;;5064155;28;20221;-85
2023/11/22 05:48:07;;;;;;;16.70;11.60;;;3.70;99.90;;;;;;5062576;28;20235;-84
2023/11/22 05:50:35;;;;;;;22.10;13.20;;;3.70;99.90;;;;;;5067003;28;20204;-84
2023/11/22 05:53:02;;;;;;;18.05;13.55;;;3.60;99.90;;;;;;5055836;28;20273;-85
2023/11/22 05:55:29;;;;;;;18.05;14.10;;;3.70;99.90;;;;;;5054109;28;20212;-85
2023/11/22 05:57:56;;;;;;;18.00;12.95;;;3.60;99.90;;;;;;5060821;28;20609;-86
2023/11/22 06:00:23;;;;;;;19.77;12.93;;;3.50;99.90;;;;;;5059363;28;20208;-85
2023/11/22 06:02:51;;;;;;;20.40;12.43;;;3.40;99.90;;;;;;5063226;28;20227;-87
2023/11/22 06:05:18;;;;;;;22.77;13.95;;;3.40;99.90;;;;;;5060645;28;20235;-86
2023/11/22 06:07:47;;;;;;;20.38;12.70;;;3.50;99.90;;;;;;5057982;28;20223;-86
2023/11/22 06:10:15;;;;;;;18.60;12.07;;;3.40;99.90;;;;;;5064102;28;20795;-84
2023/11/22 06:12:43;;;;;;;22.23;13.40;;;3.40;99.90;;;;;;5060299;28;20219;-83
2023/11/22 06:15:11;;;;;;;17.92;12.60;;;3.30;99.90;;;;;;5065357;28;20203;-83
2023/11/22 06:17:38;;;;;;;19.75;14.57;;;3.30;99.90;;;;;;5063608;28;20241;-85
2023/11/22 06:20:07;;;;;;;25.50;14.07;;;3.40;99.90;;;;;;5065721;28;20204;-86
2023/11/22 06:22:33;;;;;;;30.70;17.40;;;3.20;99.90;;;;;;5065378;28;20218;-84
2023/11/22 06:25:11;;;;;;;23.70;17.15;;;3.40;99.90;;;;;;5066343;28;20227;-87
2023/11/22 06:27:38;;;;;;;24.33;16.88;;;3.40;99.90;;;;;;5057907;28;20243;-86
2023/11/22 06:30:09;;;;;;;18.98;14.63;;;3.40;99.90;;;;;;5063076;28;20200;-88
2023/11/22 06:32:35;;;;;;;31.83;18.38;;;3.40;99.90;;;;;;5067794;28;20651;-86
2023/11/22 06:35:02;;;;;;;26.42;18.55;;;3.50;99.90;;;;;;5067240;28;20267;-86
2023/11/22 06:37:31;;;;;;;23.02;15.32;;;3.50;99.90;;;;;;5064057;28;20235;-85
2023/11/22 06:39:58;;;;;;;39.20;19.88;;;3.40;99.90;;;;;;5065394;28;20259;-86
2023/11/22 06:42:26;;;;;;;25.55;17.80;;;3.50;99.90;;;;;;5058460;28;20206;-85
2023/11/22 06:44:57;;;;;;;21.47;14.93;;;3.60;99.90;;;;;;5059740;28;20993;-85
2023/11/22 06:47:24;;;;;;;22.05;15.57;;;3.70;99.90;;;;;;5063981;28;20480;-84
2023/11/22 06:50:17;;;;;;;25.35;17.15;;;3.70;99.90;;;;;;5061623;28;20228;-86
2023/11/22 06:52:45;;;;;;;22.83;17.00;;;3.70;99.90;;;;;;5061733;28;20650;-83
2023/11/22 06:55:12;;;;;;;26.98;17.20;;;3.60;99.90;;;;;;5062123;28;21664;-83
2023/11/22 06:57:40;;;;;;;25.58;15.63;;;3.80;99.90;;;;;;5064748;28;20224;-83
2023/11/22 07:00:09;;;;;;;25.13;17.30;;;3.80;99.90;;;;;;4960337;28;2719628;-82
2023/11/22 07:02:36;;;;;;;25.63;17.58;;;3.80;99.90;;;;;;5064596;28;20224;-81
2023/11/22 07:05:06;;;;;;;32.00;18.83;;;3.80;99.90;;;;;;5063761;28;20199;-80
2023/11/22 07:07:33;;;;;;;26.63;16.42;;;3.80;99.90;;;;;;5056804;28;20231;-81
2023/11/22 07:10:00;;;;;;;23.83;15.75;;;3.60;99.90;;;;;;5058443;28;20258;-80
2023/11/22 07:12:27;;;;;;;21.40;15.40;;;3.60;99.90;;;;;;5056367;28;20228;-81
2023/11/22 07:14:56;;;;;;;22.90;15.15;;;3.70;99.90;;;;;;5068755;28;20212;-79
2023/11/22 07:17:23;;;;;;;35.33;19.67;;;3.70;99.90;;;;;;5059006;28;20466;-79
2023/11/22 07:19:51;;;;;;;23.25;15.50;;;3.60;99.90;;;;;;5068984;28;20204;-80
2023/11/22 07:22:19;;;;;;;31.63;17.27;;;3.90;99.90;;;;;;5063504;28;20663;-83
2023/11/22 07:24:47;;;;;;;26.27;17.90;;;3.90;99.90;;;;;;5063873;28;20204;-81
2023/11/22 07:27:16;;;;;;;25.50;17.35;;;3.90;99.90;;;;;;5062532;28;20246;-82
2023/11/22 07:29:43;;;;;;;26.80;18.00;;;3.80;99.90;;;;;;5059089;28;20268;-81
2023/11/22 07:32:12;;;;;;;21.00;15.50;;;3.60;99.90;;;;;;5066999;28;20239;-81
2023/11/22 07:34:40;;;;;;;26.55;16.25;;;3.60;99.90;;;;;;5065598;28;20282;-81
2023/11/22 07:37:08;;;;;;;25.90;18.08;;;3.60;99.90;;;;;;5062753;28;20713;-79
2023/11/22 07:39:35;;;;;;;25.58;16.70;;;3.70;99.90;;;;;;5063684;28;20210;-84
2023/11/22 07:42:02;;;;;;;25.00;16.75;;;3.50;99.90;;;;;;5063014;28;20268;-82
2023/11/22 07:44:32;;;;;;;31.20;16.77;;;3.60;99.90;;;;;;5061776;28;20203;-83
2023/11/22 07:47:00;;;;;;;24.08;15.23;;;3.80;99.90;;;;;;5061436;28;20216;-81
2023/11/22 07:49:28;;;;;;;20.58;14.55;;;3.80;99.90;;;;;;5060879;28;20223;-83
2023/11/22 07:51:56;;;;;;;20.63;14.27;;;3.90;99.90;;;;;;5061132;28;20577;-80
2023/11/22 07:54:23;;;;;;;16.65;12.95;;;4.00;99.90;;;;;;5065052;28;20212;-80
2023/11/22 07:56:52;;;;;;;20.40;12.63;;;4.20;99.90;;;;;;5067148;28;20243;-79
2023/11/22 07:59:18;;;;;;;18.27;13.25;;;4.20;99.90;;;;;;5061475;28;20465;-81
2023/11/22 08:01:47;;;;;;;17.98;12.95;;;4.40;99.90;;;;;;5064982;28;20204;-80
2023/11/22 08:04:17;;;;;;;16.88;12.23;;;4.60;99.90;;;;;;5067857;28;20687;-84
2023/11/22 08:06:47;;;;;;;16.77;11.52;;;4.60;99.90;;;;;;5069940;28;20219;-85
2023/11/22 08:09:16;;;;;;;18.70;10.70;;;4.80;99.90;;;;;;5071230;28;20230;-85
2023/11/22 08:11:43;;;;;;;14.85;12.88;;;4.70;99.90;;;;;;5072689;28;20670;-85
2023/11/22 08:14:11;;;;;;;20.52;11.63;;;4.70;99.90;;;;;;5073918;28;20294;-85
2023/11/22 08:16:42;;;;;;;15.05;11.50;;;4.70;99.90;;;;;;5069353;28;20242;-85
2023/11/22 08:19:09;;;;;;;16.40;10.75;;;4.80;99.90;;;;;;5075951;28;20212;-84
2023/11/22 08:21:36;;;;;;;15.45;11.13;;;4.90;99.90;;;;;;5068701;28;20207;-85
2023/11/22 08:24:05;;;;;;;18.00;11.60;;;4.90;99.90;;;;;;5067895;28;20226;-84
2023/11/22 08:26:32;;;;;;;15.30;11.82;;;4.90;99.90;;;;;;5071624;28;20258;-84
2023/11/22 08:28:59;;;;;;;13.63;10.00;;;5.00;99.90;;;;;;5068443;28;20231;-82
2023/11/22 08:31:26;;;;;;;12.27;9.15;;;5.10;99.90;;;;;;5071985;28;20212;-83
2023/11/22 08:33:52;;;;;;;14.70;10.20;;;5.10;99.90;;;;;;5072737;28;20231;-84
2023/11/22 08:36:19;;;;;;;13.52;11.40;;;5.00;99.90;;;;;;5072172;28;20215;-83
2023/11/22 08:38:46;;;;;;;15.60;10.93;;;5.10;99.90;;;;;;5072653;28;20290;-84
2023/11/22 08:41:14;;;;;;;19.48;11.77;;;4.90;99.90;;;;;;5073424;28;20211;-82
2023/11/22 08:43:42;;;;;;;18.38;12.60;;;4.90;99.90;;;;;;5072775;28;20208;-83
2023/11/22 08:46:08;;;;;;;19.60;12.00;;;4.80;99.90;;;;;;5070604;28;20218;-83
2023/11/22 08:48:36;;;;;;;16.30;13.10;;;4.80;99.90;;;;;;5068777;28;20211;-84
2023/11/22 08:51:04;;;;;;;14.73;11.85;;;4.70;99.90;;;;;;5064682;28;20212;-84
2023/11/22 08:53:31;;;;;;;19.02;14.32;;;4.60;99.90;;;;;;5070242;28;20364;-84
2023/11/22 08:55:58;;;;;;;25.38;14.93;;;4.80;99.90;;;;;;5068226;28;20311;-83
2023/11/22 08:58:27;;;;;;;21.30;15.48;;;5.10;99.90;;;;;;5067979;28;20236;-84
2023/11/22 09:00:54;;;;;;;15.73;12.02;;;5.10;99.90;;;;;;5070022;28;20200;-85
2023/11/22 09:03:21;;;;;;;20.23;14.15;;;5.30;99.90;;;;;;5069606;28;20267;-82
2023/11/22 09:05:49;;;;;;;18.48;13.90;;;5.50;99.90;;;;;;5069374;28;20230;-83
2023/11/22 09:08:15;;;;;;;14.93;10.85;;;5.70;99.90;;;;;;5073798;28;20244;-83
2023/11/22 09:10:43;;;;;;;18.48;10.80;;;5.60;99.90;;;;;;5074089;28;20227;-84
2023/11/22 09:13:10;;;;;;;13.95;10.73;;;5.60;99.90;;;;;;5075162;28;20227;-84
2023/11/22 09:15:39;;;;;;;14.07;11.30;;;5.70;99.90;;;;;;5063723;28;20210;-84
2023/11/22 09:18:06;;;;;;;18.33;11.60;;;5.70;99.90;;;;;;5063108;28;20223;-84
2023/11/22 09:20:33;;;;;;;12.40;10.90;;;5.90;99.90;;;;;;5062382;28;20196;-85
2023/11/22 09:23:00;;;;;;;12.52;11.00;;;5.90;99.90;;;;;;5063095;28;20270;-84
2023/11/22 09:25:28;;;;;;;10.77;9.10;;;5.90;99.90;;;;;;5072843;28;20195;-83
2023/11/22 09:27:59;;;;;;;12.27;10.02;;;6.10;99.90;;;;;;5060797;28;20220;-84
2023/11/22 09:30:37;;;;;;;12.48;10.02;;;6.00;99.90;;;;;;5058821;28;20211;-84
2023/11/22 09:33:08;;;;;;;14.23;11.27;;;6.30;99.90;;;;;;5052246;28;20315;-84
2023/11/22 09:35:36;;;;;;;11.60;7.78;;;6.00;99.90;;;;;;5060649;28;20204;-84
2023/11/22 09:38:04;;;;;;;9.80;8.10;;;6.30;99.90;;;;;;5062609;28;20239;-85
2023/11/22 09:40:32;;;;;;;13.55;7.93;;;6.30;99.90;;;;;;5055857;28;20210;-85
2023/11/22 09:43:00;;;;;;;8.20;7.03;;;6.50;99.90;;;;;;5062216;28;20228;-86
2023/11/22 09:45:27;;;;;;;13.27;7.35;;;6.60;99.90;;;;;;5059394;28;20207;-85
2023/11/22 09:47:55;;;;;;;13.93;8.30;;;6.80;99.90;;;;;;5064382;28;20254;-85
2023/11/22 09:50:30;;;;;;;10.27;7.28;;;6.90;99.90;;;;;;5067312;28;20485;-85
2023/11/22 09:53:01;;;;;;;10.40;7.45;;;6.90;99.90;;;;;;5066758;28;20263;-85
2023/11/22 09:55:29;;;;;;;10.27;7.63;;;6.70;99.90;;;;;;5062229;28;20210;-85
2023/11/22 10:00:45;;;;;;;10.18;8.07;;;6.40;99.90;;;;;;860900;22;20641;-73
2023/11/22 10:03:14;;;;;;;9.07;7.80;;;6.40;99.90;;;;;;5025276;28;20212;-73
2023/11/22 10:05:43;;;;;;;10.02;8.02;;;6.30;99.90;;;;;;5031421;28;20224;-73
2023/11/22 10:08:10;;;;;;;12.02;7.15;;;6.20;99.90;;;;;;5029850;28;20199;-74
2023/11/22 10:10:40;;;;;;;9.90;7.40;;;6.20;99.90;;;;;;5022862;28;20204;-74
2023/11/22 10:13:07;;;;;;;9.23;6.78;;;6.20;99.90;;;;;;5024404;28;20263;-75
2023/11/22 10:15:34;;;;;;;11.45;6.65;;;6.30;99.90;;;;;;5021340;28;20299;-75
2023/11/22 10:18:01;;;;;;;11.77;6.95;;;6.40;99.90;;;;;;5028699;28;20228;-74
2023/11/22 10:20:39;;;;;;;11.05;7.05;;;6.50;99.90;;;;;;5019743;28;20216;-74
2023/11/22 10:23:11;;;;;;;9.75;7.75;;;6.40;99.90;;;;;;5022831;28;20199;-73
2023/11/22 10:25:38;;;;;;;10.30;7.35;;;6.50;99.90;;;;;;5015721;28;20251;-76
2023/11/22 10:28:08;;;;;;;8.98;6.70;;;6.30;99.90;;;;;;5030751;28;20208;-74
2023/11/22 10:30:35;;;;;;;8.38;6.53;;;6.40;99.90;;;;;;5024446;28;20613;-75
2023/11/22 10:33:03;;;;;;;9.55;6.88;;;6.50;99.90;;;;;;5025374;28;20212;-75
2023/11/22 10:35:31;;;;;;;7.88;6.47;;;6.50;99.90;;;;;;5015248;28;20249;-74
2023/11/22 10:37:57;;;;;;;8.50;6.93;;;6.60;99.90;;;;;;5027101;28;20205;-75
2023/11/22 10:40:26;;;;;;;9.15;7.10;;;6.60;99.90;;;;;;5018815;28;20213;-73
2023/11/22 10:42:57;;;;;;;11.18;6.72;;;6.60;99.90;;;;;;5022864;28;20511;-74
2023/11/22 10:45:25;;;;;;;8.60;6.13;;;6.60;99.90;;;;;;5022292;28;20225;-74
2023/11/22 10:47:55;;;;;;;9.20;6.78;;;6.50;99.90;;;;;;5021427;28;20209;-72
2023/11/22 10:50:21;;;;;;;20.20;9.35;;;6.60;99.90;;;;;;5026341;28;20208;-72
2023/11/22 10:52:53;;;;;;;23.25;10.95;;;6.70;99.90;;;;;;5026711;28;20258;-72
2023/11/22 10:55:21;;;;;;;8.57;5.75;;;6.50;99.90;;;;;;5021739;28;20263;-71
2023/11/22 10:57:53;;;;;;;8.30;4.80;;;6.50;99.90;;;;;;5024761;28;20607;-74
2023/11/22 11:00:23;;;;;;;11.02;4.68;;;6.90;99.90;;;;;;5029563;28;20274;-72
2023/11/22 11:02:56;;;;;;;26.38;8.57;;;7.00;99.90;;;;;;5030884;28;20651;-72
2023/11/22 11:05:28;;;;;;;6.45;4.65;;;7.20;99.90;;;;;;5026639;28;20667;-75
2023/11/22 11:08:01;;;;;;;6.45;4.05;;;7.00;99.90;;;;;;5021269;28;20201;-72
2023/11/22 11:10:31;;;;;;;9.48;4.75;;;7.10;99.90;;;;;;5019098;28;20923;-74
2023/11/22 11:13:03;;;;;;;8.65;4.20;;;7.10;99.90;;;;;;5019605;28;20215;-75
2023/11/22 11:15:31;;;;;;;7.55;4.45;;;7.10;99.90;;;;;;5026995;28;20226;-73
2023/11/22 11:17:59;;;;;;;5.57;3.47;;;7.10;99.90;;;;;;5033704;28;20263;-72
2023/11/22 11:20:26;;;;;;;5.47;3.70;;;7.20;99.90;;;;;;5021791;28;20207;-75
2023/11/22 11:22:55;;;;;;;4.22;3.30;;;7.30;99.90;;;;;;5020385;28;20264;-76
2023/11/22 11:25:22;;;;;;;5.35;3.70;;;7.30;99.90;;;;;;5020417;28;20228;-80
2023/11/22 11:28:00;;;;;;;7.85;5.13;;;7.40;99.90;;;;;;5024666;28;20215;-73
2023/11/22 11:30:48;;;;;;;13.30;4.38;;;7.50;99.90;;;;;;5016848;28;20218;-74
2023/11/22 11:33:17;;;;;;;7.82;4.18;;;7.40;99.90;;;;;;5025970;28;20240;-74
2023/11/22 11:35:46;;;;;;;5.53;4.20;;;7.30;99.90;;;;;;5028631;28;20705;-72
2023/11/22 11:38:14;;;;;;;8.02;5.47;;;7.40;99.90;;;;;;5029055;28;20643;-73
2023/11/22 11:40:42;;;;;;;4.90;3.05;;;7.40;99.90;;;;;;5024592;28;20296;-74
2023/11/22 11:43:11;;;;;;;7.40;3.15;;;7.50;99.90;;;;;;5017094;28;20199;-74
2023/11/22 11:45:40;;;;;;;6.50;3.35;;;7.50;99.90;;;;;;5024570;28;20231;-73
2023/11/22 11:48:07;;;;;;;3.80;3.15;;;7.50;99.90;;;;;;5028326;28;20255;-75
2023/11/22 11:50:34;;;;;;;4.85;3.95;;;7.40;99.90;;;;;;5026412;28;20208;-72
2023/11/22 11:53:04;;;;;;;5.43;3.45;;;7.20;99.90;;;;;;5019455;28;20213;-73
2023/11/22 11:55:31;;;;;;;4.50;3.20;;;7.40;99.90;;;;;;5034317;28;20223;-73
2023/11/22 11:58:05;;;;;;;7.00;3.30;;;7.20;99.90;;;;;;5033308;28;20240;-72
2023/11/22 12:00:33;;;;;;;3.65;2.60;;;7.20;99.90;;;;;;5026323;28;20526;-74
2023/11/22 12:03:00;;;;;;;3.50;3.20;;;7.30;99.90;;;;;;5025620;28;20243;-73
2023/11/22 12:05:27;;;;;;;4.85;2.90;;;7.30;99.90;;;;;;5026174;28;20335;-75
2023/11/22 12:07:55;;;;;;;3.03;2.47;;;7.20;99.90;;;;;;5025256;28;20208;-73
2023/11/22 12:10:24;;;;;;;6.57;3.47;;;7.30;99.90;;;;;;5030978;28;20208;-73
2023/11/22 12:12:51;;;;;;;2.78;1.90;;;7.20;99.90;;;;;;5030393;28;20268;-73
2023/11/22 12:15:18;;;;;;;2.42;1.80;;;7.20;99.90;;;;;;5029352;28;20235;-71
2023/11/22 12:17:50;;;;;;;3.45;2.03;;;7.20;99.90;;;;;;5020399;28;20200;-73
2023/11/22 12:20:21;;;;;;;3.35;1.90;;;7.20;99.90;;;;;;5015962;28;20286;-72
2023/11/22 12:22:48;;;;;;;3.25;2.00;;;7.20;99.90;;;;;;5023088;28;20203;-73
2023/11/22 12:25:15;;;;;;;5.93;2.30;;;6.90;99.90;;;;;;5026604;28;20305;-73
2023/11/22 12:27:44;;;;;;;3.20;2.40;;;7.00;99.90;;;;;;5032770;28;20205;-73
2023/11/22 12:30:28;;;;;;;2.90;2.20;;;6.90;99.90;;;;;;5025727;28;20252;-73
2023/11/22 12:32:56;;;;;;;4.43;2.20;;;6.90;99.90;;;;;;5023496;28;20556;-73
2023/11/22 12:35:24;;;;;;;3.63;2.28;;;6.90;99.20;;;;;;5023214;28;20703;-74
2023/11/22 12:37:51;;;;;;;3.00;2.42;;;6.80;99.00;;;;;;5017504;28;20211;-75
2023/11/22 12:40:21;;;;;;;3.00;2.22;;;6.90;98.30;;;;;;5024058;28;20294;-74
2023/11/22 12:42:49;;;;;;;2.38;2.05;;;7.00;98.50;;;;;;5029615;28;20210;-76
2023/11/22 12:45:24;;;;;;;3.70;2.25;;;7.00;97.80;;;;;;5021585;28;20245;-71
2023/11/22 12:47:51;;;;;;;3.67;2.13;;;7.10;97.90;;;;;;5014023;28;20208;-71
2023/11/22 12:50:32;;;;;;;2.17;1.57;;;7.10;98.60;;;;;;5019311;28;20251;-74